Monday, April 20, 2015, 9:21 PM EDT

KLNS, Lancaster Airport

Location: Lititz, PA, United States Lat: 40.117
Local Time: 9:21 PM EDT ( 1:21 GMT) Lon: -76.3
Time Zone: US/Eastern Elev: 403 ft

Show me the last for .
Show Decoded

2015-04-20 20:53 METAR KLNS 210053Z 12010KT 10SM FEW110 19/16 A2950 RMK AO2 LTG DSNT NW SLP989
                 T01890161 =
2015-04-20 19:53 METAR KLNS 202353Z 13007KT 10SM CLR 21/16 A2951 RMK AO2 SLP991 T02060156 10228
                 20194 58013 =
2015-04-20 18:53 METAR KLNS 202253Z 12006KT 10SM CLR 22/16 A2953 RMK AO2 SLP999 T02170161 =
2015-04-20 17:53 METAR KLNS 202153Z 15007KT 10SM FEW060 23/15 A2955 RMK AO2 LTG DSNT N AND NE
                 SLP004 T02280150 =
2015-04-20 17:05 METAR KLNS 202105Z 15010KT 10SM VCTS FEW043 BKN080 OVC100 22/14 A2955 RMK AO2
                 T02220144 =
2015-04-20 16:53 METAR KLNS 202053Z 15010KT 10SM SCT041 BKN055 OVC110 22/14 A2955 RMK AO2 WSHFT
                 2034 SLP004 T02220144 56023 =
2015-04-20 15:53 METAR KLNS 201953Z 07009KT 10SM FEW038 22/17 A2956 RMK AO2 SLP008 T02170167 =
2015-04-20 14:53 METAR KLNS 201853Z 10006KT 10SM FEW037 21/17 A2959 RMK AO2 SLP019 T02060167 =
2015-04-20 14:23 METAR KLNS 201823Z 07005KT 10SM SCT021 21/16 A2961 RMK AO2 T02060161 =
2015-04-20 14:16 METAR KLNS 201816Z 09006KT 10SM BKN021 21/17 A2961 RMK AO2 T02060167 =
2015-04-20 13:53 METAR KLNS 201753Z 05005KT 10SM BKN019 19/16 A2962 RMK AO2 SLP028 60005
                 T01940156 10200 20122 58019 =
2015-04-20 13:32 METAR KLNS 201732Z 05004KT 10SM BKN015 BKN021 19/16 A2962 RMK AO2 T01940156 =
2015-04-20 13:17 METAR KLNS 201717Z 36004KT 10SM BKN013 BKN020 19/16 A2963 RMK AO2 T01890156 =
2015-04-20 12:53 METAR KLNS 201653Z 00000KT 10SM SCT025 18/16 A2963 RMK AO2 SLP034 T01830156 =
2015-04-20 12:33 METAR KLNS 201633Z 06003KT 10SM SCT008 OVC024 17/15 A2965 RMK AO2 T01720150 =
2015-04-20 11:53 METAR KLNS 201553Z 06006KT 9SM OVC006 16/14 A2966 RMK AO2 SLP043 T01560144 =
2015-04-20 10:53 METAR KLNS 201453Z 08008KT 6SM BR OVC006 14/14 A2967 RMK AO2 RAE24 SLP048 P0000
                 60005 T01440139 56005 =
2015-04-20 09:53 METAR KLNS 201353Z 07008KT 4SM -RA BR OVC005 13/13 A2968 RMK AO2 SLP048 P0002
                 T01330128 =
2015-04-20 08:53 METAR KLNS 201253Z 11011KT 3SM -RA BR OVC006 13/13 A2968 RMK AO2 SLP049 P0003
                 T01330128 =
2015-04-20 06:53 METAR KLNS 201053Z 11013KT 8SM -RA OVC009 12/11 A2970 RMK AO2 PK WND 11026/0956
                 SLP057 P0002 T01170106 =
2015-04-20 05:53 METAR KLNS 200953Z 11019G26KT 4SM RA BR OVC011 11/10 A2970 RMK AO2 PK WND
                 11029/0928 CIG 008V012 SLP058 P0023 T01110100 =
2015-04-20 04:32 METAR KLNS 200832Z 10017G23KT 5SM RA BR OVC009 11/09 A2973 RMK AO2 CIG 007V013
                 P0006 T01060094 =
2015-04-20 03:53 METAR KLNS 200753Z 09016G22KT 6SM -RA BR OVC011 10/09 A2976 RMK AO2 CIG 009V014
                 PRESFR SLP077 P0007 T01000089 =
2015-04-20 02:41 METAR KLNS 200641Z 09015KT 8SM -RA OVC014 09/07 A2982 RMK AO2 RAB11 P0000
                 T00890072 =
2015-04-20 01:53 METAR KLNS 200553Z 10014G23KT 10SM OVC019 09/07 A2987 RMK AO2 SLP116 60001
                 T00940067 10122 20089 56048 =
2015-04-20 00:53 METAR KLNS 200453Z 10014KT 10SM BKN018 OVC023 09/07 A2993 RMK AO2 RAB25E32
                 SLP135 P0000 T00940067 401830089 =
2015-04-19 23:53 METAR KLNS 200353Z 09017KT 10SM OVC026 09/06 A2996 RMK AO2 RAE18 PRESFR SLP146
                 P0000 T00890061 =
2015-04-19 22:53 METAR KLNS 200253Z 10013G21KT 10SM -RA OVC029 09/06 A3002 RMK AO2 SLP165 P0001
                 60001 T00940056 56017 =
2015-04-19 22:50 METAR KLNS 200250Z 10015G21KT 10SM -RA OVC029 09/06 A3002 RMK AO2 P0001 =

Support USWX by starting your Amazon purchase here.